Time;durP1;ratioP1;P1;durP2;ratioP2;P2;SDS_P1;SDS_P2;PMS_P1;PMS_P2;Temp;Humidity;BMP_temperature;BMP_pressure;BME280_temperature;BME280_humidity;BME280_pressure;Samples;Min_cycle;Max_cycle;Signal;HPM_P1;HPM_P2
2021/05/05 00:01:56;;;;;;;12.43;2.58;;;7.50;90.40;;;;;;5040632;28;20044;-79
2021/05/05 00:04:22;;;;;;;10.52;2.97;;;7.50;90.40;;;;;;5053439;28;20053;-81
2021/05/05 00:06:48;;;;;;;9.07;1.95;;;7.50;90.40;;;;;;5005219;28;20120;-80
2021/05/05 00:09:15;;;;;;;13.25;1.90;;;7.40;90.40;;;;;;5020819;28;20463;-80
2021/05/05 00:11:41;;;;;;;9.63;1.80;;;7.40;90.30;;;;;;5020481;28;20041;-80
2021/05/05 00:14:08;;;;;;;9.50;2.40;;;7.40;90.30;;;;;;5041086;28;20076;-79
2021/05/05 00:16:34;;;;;;;11.95;1.77;;;7.40;90.30;;;;;;5058345;28;20098;-78
2021/05/05 00:19:00;;;;;;;9.75;2.33;;;7.40;90.40;;;;;;5057559;28;20036;-78
2021/05/05 00:21:25;;;;;;;10.93;2.13;;;7.40;90.40;;;;;;5058240;28;20118;-82
2021/05/05 00:23:52;;;;;;;9.88;3.03;;;7.40;90.30;;;;;;5040987;28;20052;-80
2021/05/05 00:26:17;;;;;;;8.20;2.13;;;7.40;90.40;;;;;;5040886;28;20354;-79
2021/05/05 00:28:43;;;;;;;9.98;3.40;;;7.40;90.30;;;;;;5023635;28;20036;-79
2021/05/05 00:31:09;;;;;;;5.75;1.67;;;7.40;90.30;;;;;;5040651;28;20484;-78
2021/05/05 00:33:35;;;;;;;11.50;2.75;;;7.40;90.40;;;;;;5056857;28;20075;-79
2021/05/05 00:36:01;;;;;;;8.90;2.03;;;7.30;90.40;;;;;;5040905;28;20045;-78
2021/05/05 00:38:27;;;;;;;10.38;2.47;;;7.30;90.40;;;;;;5039975;28;20049;-80
2021/05/05 00:40:52;;;;;;;13.10;2.40;;;7.30;90.30;;;;;;5023201;28;20055;-79
2021/05/05 00:43:18;;;;;;;8.85;2.40;;;7.30;90.20;;;;;;5040336;28;20482;-79
2021/05/05 00:45:46;;;;;;;11.07;2.00;;;7.30;90.30;;;;;;5056381;28;20045;-78
2021/05/05 00:48:12;;;;;;;10.52;2.78;;;7.30;90.30;;;;;;5040925;28;20140;-78
2021/05/05 00:50:38;;;;;;;8.25;1.73;;;7.30;90.30;;;;;;5057162;28;20040;-78
2021/05/05 00:53:04;;;;;;;9.30;2.17;;;7.30;90.20;;;;;;5041005;28;20041;-79
2021/05/05 00:55:29;;;;;;;8.63;2.05;;;7.30;90.20;;;;;;5039695;28;20076;-80
2021/05/05 00:57:55;;;;;;;8.57;1.80;;;7.30;90.20;;;;;;5040629;28;20060;-79
2021/05/05 01:00:22;;;;;;;12.43;2.60;;;7.30;90.20;;;;;;5023962;28;20048;-81
2021/05/05 01:02:48;;;;;;;11.93;2.63;;;7.30;90.20;;;;;;5050922;28;20037;-80
2021/05/05 01:05:14;;;;;;;8.50;2.20;;;7.30;90.20;;;;;;5023464;28;20079;-77
2021/05/05 01:07:40;;;;;;;6.43;2.33;;;7.30;90.20;;;;;;5021750;28;20099;-79
2021/05/05 01:10:07;;;;;;;14.43;2.80;;;7.30;90.30;;;;;;5043761;28;20470;-80
2021/05/05 01:12:33;;;;;;;13.45;2.95;;;7.30;90.30;;;;;;5039711;28;20045;-81
2021/05/05 01:14:59;;;;;;;6.95;2.03;;;7.40;90.30;;;;;;5040563;28;20523;-79
2021/05/05 01:17:25;;;;;;;8.98;1.92;;;7.40;90.40;;;;;;5040064;28;20053;-81
2021/05/05 01:19:51;;;;;;;8.02;2.80;;;7.40;90.40;;;;;;5043358;28;20033;-80
2021/05/05 01:22:16;;;;;;;13.18;2.88;;;7.40;90.40;;;;;;5036688;28;20057;-80
2021/05/05 01:24:42;;;;;;;10.23;2.05;;;7.40;90.40;;;;;;5035787;28;20490;-81
2021/05/05 01:27:08;;;;;;;9.40;2.13;;;7.40;90.40;;;;;;5020474;28;20045;-79
2021/05/05 01:29:37;;;;;;;8.77;2.70;;;7.40;90.40;;;;;;5035901;28;20033;-80
2021/05/05 01:32:04;;;;;;;10.57;2.35;;;7.40;90.50;;;;;;5020031;28;20033;-80
2021/05/05 01:34:29;;;;;;;12.07;2.50;;;7.40;90.40;;;;;;5020067;28;20497;-78
2021/05/05 01:36:55;;;;;;;8.80;2.38;;;7.30;90.40;;;;;;5035921;28;20049;-80
2021/05/05 01:39:21;;;;;;;8.60;2.03;;;7.30;90.40;;;;;;5003682;28;20056;-79
2021/05/05 01:41:47;;;;;;;10.23;2.08;;;7.20;90.40;;;;;;5019074;28;20128;-81
2021/05/05 01:44:15;;;;;;;9.90;1.83;;;7.20;90.30;;;;;;5019788;28;20046;-80
2021/05/05 01:46:49;;;;;;;11.98;2.75;;;7.20;90.30;;;;;;5019464;28;20042;-78
2021/05/05 01:49:21;;;;;;;10.10;2.63;;;7.30;90.40;;;;;;5022219;28;20103;-79
2021/05/05 01:51:48;;;;;;;14.38;3.28;;;7.30;90.50;;;;;;5002920;28;20465;-78
2021/05/05 01:54:14;;;;;;;6.90;1.90;;;7.20;90.40;;;;;;4987246;28;20049;-80
2021/05/05 01:56:40;;;;;;;9.82;2.40;;;7.20;90.40;;;;;;5002903;28;20052;-80
2021/05/05 01:59:06;;;;;;;10.77;2.78;;;7.20;90.30;;;;;;5019547;28;20037;-82
2021/05/05 02:01:32;;;;;;;10.73;2.80;;;7.20;90.40;;;;;;5035915;28;20041;-78
2021/05/05 02:04:00;;;;;;;10.02;2.25;;;7.20;90.40;;;;;;5033748;28;20183;-82
2021/05/05 02:06:26;;;;;;;12.23;2.80;;;7.20;90.50;;;;;;5036101;28;20045;-80
2021/05/05 02:08:52;;;;;;;7.70;2.70;;;7.20;90.50;;;;;;5019615;28;20475;-79
2021/05/05 02:11:18;;;;;;;11.63;2.67;;;7.20;90.50;;;;;;5039691;28;20060;-81
2021/05/05 02:13:44;;;;;;;10.38;3.20;;;7.20;90.50;;;;;;5021018;28;20426;-79
2021/05/05 02:16:10;;;;;;;10.18;3.33;;;7.10;90.50;;;;;;5019803;28;20095;-79
2021/05/05 02:18:36;;;;;;;14.95;4.15;;;7.20;90.60;;;;;;5037046;28;20067;-80
2021/05/05 02:21:01;;;;;;;15.18;3.10;;;7.20;90.60;;;;;;5021059;28;20056;-81
2021/05/05 02:23:27;;;;;;;10.35;3.72;;;7.20;90.60;;;;;;5004138;28;20069;-81
2021/05/05 02:25:53;;;;;;;12.98;3.10;;;7.20;90.60;;;;;;5019857;28;20073;-81
2021/05/05 02:28:19;;;;;;;11.20;3.03;;;7.20;90.70;;;;;;5037028;28;20054;-77
2021/05/05 02:30:45;;;;;;;14.45;2.70;;;7.20;90.70;;;;;;5036542;28;20041;-77
2021/05/05 02:33:11;;;;;;;12.88;3.58;;;7.20;90.70;;;;;;5004312;28;20065;-80
2021/05/05 02:35:37;;;;;;;11.23;2.70;;;7.20;90.70;;;;;;5020921;28;20053;-80
2021/05/05 02:38:03;;;;;;;17.15;3.55;;;7.20;90.80;;;;;;5021454;28;20040;-81
2021/05/05 02:40:28;;;;;;;11.60;2.67;;;7.20;90.80;;;;;;5022457;28;20056;-80
2021/05/05 02:42:54;;;;;;;10.73;2.75;;;7.10;90.80;;;;;;5021164;28;20048;-78
2021/05/05 02:45:20;;;;;;;10.70;2.85;;;7.20;90.90;;;;;;5004733;28;20045;-80
2021/05/05 02:47:46;;;;;;;9.80;3.08;;;7.10;90.80;;;;;;5020310;28;20125;-81
2021/05/05 02:50:12;;;;;;;15.70;3.60;;;7.10;90.90;;;;;;5020937;28;20073;-79
2021/05/05 02:52:39;;;;;;;14.93;3.25;;;7.10;90.90;;;;;;5023476;28;20350;-78
2021/05/05 02:55:05;;;;;;;16.75;4.00;;;7.10;91.00;;;;;;5020349;28;20224;-80
2021/05/05 02:57:31;;;;;;;17.80;4.00;;;7.10;91.00;;;;;;5025413;28;20119;-77
2021/05/05 02:59:57;;;;;;;15.02;3.50;;;7.10;91.00;;;;;;5036484;28;20489;-80
2021/05/05 03:02:23;;;;;;;14.10;3.53;;;7.10;90.90;;;;;;5051298;28;20079;-81
2021/05/05 03:04:49;;;;;;;9.27;2.95;;;7.10;91.00;;;;;;5016746;28;20045;-81
2021/05/05 03:07:15;;;;;;;14.05;2.75;;;7.10;91.00;;;;;;5017199;28;20470;-80
2021/05/05 03:09:41;;;;;;;15.77;4.00;;;7.10;91.00;;;;;;5001139;28;20532;-78
2021/05/05 03:12:09;;;;;;;10.68;3.22;;;7.20;91.00;;;;;;5016745;28;20057;-79
2021/05/05 03:14:34;;;;;;;14.88;3.80;;;7.10;90.90;;;;;;5017055;28;20383;-80
2021/05/05 03:17:00;;;;;;;14.73;3.78;;;7.10;90.90;;;;;;5032441;28;20053;-79
2021/05/05 03:19:26;;;;;;;11.85;2.88;;;7.10;91.00;;;;;;5016859;28;20558;-79
2021/05/05 03:21:52;;;;;;;15.48;3.35;;;7.00;90.90;;;;;;5034113;28;20080;-80
2021/05/05 03:24:18;;;;;;;14.77;3.28;;;7.00;90.90;;;;;;5000942;28;20077;-80
2021/05/05 03:26:44;;;;;;;14.35;3.40;;;7.00;90.90;;;;;;5018440;28;20042;-81
2021/05/05 03:29:10;;;;;;;13.00;3.40;;;7.00;90.90;;;;;;5021141;28;20081;-79
2021/05/05 03:31:36;;;;;;;8.82;2.70;;;7.00;91.00;;;;;;5038080;28;20041;-80
2021/05/05 03:34:02;;;;;;;11.57;2.95;;;7.00;90.80;;;;;;5038083;28;20045;-81
2021/05/05 03:36:28;;;;;;;10.23;2.47;;;7.00;90.90;;;;;;5005373;28;20041;-80
2021/05/05 03:38:54;;;;;;;10.40;3.08;;;7.00;90.80;;;;;;5004894;28;20064;-81
2021/05/05 03:41:19;;;;;;;11.20;2.83;;;7.00;90.80;;;;;;5021906;28;20054;-80
2021/05/05 03:43:45;;;;;;;11.65;3.05;;;7.00;90.80;;;;;;5005974;28;20072;-80
2021/05/05 03:46:11;;;;;;;11.02;2.85;;;7.00;90.70;;;;;;5021609;28;20067;-80
2021/05/05 03:48:37;;;;;;;8.95;2.60;;;7.00;90.80;;;;;;5038430;28;20041;-78
2021/05/05 03:51:03;;;;;;;10.98;2.70;;;7.00;90.80;;;;;;5038535;28;20126;-78
2021/05/05 03:53:29;;;;;;;15.23;3.35;;;7.00;90.80;;;;;;5022773;28;20056;-80
2021/05/05 03:55:55;;;;;;;9.50;2.78;;;7.00;91.00;;;;;;5005382;28;20516;-79
2021/05/05 03:58:21;;;;;;;14.98;3.13;;;7.00;91.00;;;;;;5022763;28;20046;-78
2021/05/05 04:00:47;;;;;;;7.32;2.78;;;7.00;91.00;;;;;;5022514;28;20417;-80
2021/05/05 04:03:13;;;;;;;14.52;2.90;;;7.00;91.00;;;;;;5005693;28;20105;-81
2021/05/05 04:05:39;;;;;;;13.93;3.13;;;7.00;91.00;;;;;;5022590;28;20457;-82
2021/05/05 04:08:06;;;;;;;14.55;3.30;;;7.00;91.00;;;;;;5037905;28;20120;-82
2021/05/05 04:10:32;;;;;;;11.88;3.85;;;7.00;90.90;;;;;;5022322;28;20045;-80
2021/05/05 04:12:58;;;;;;;14.57;3.85;;;7.00;91.00;;;;;;5038045;28;20045;-81
2021/05/05 04:15:24;;;;;;;15.27;3.25;;;7.00;90.90;;;;;;5005516;28;20042;-81
2021/05/05 04:17:50;;;;;;;13.73;3.38;;;7.00;90.90;;;;;;5006119;28;20045;-81
2021/05/05 04:20:16;;;;;;;11.25;3.35;;;7.00;90.90;;;;;;5021616;28;20125;-80
2021/05/05 04:22:42;;;;;;;12.32;4.35;;;7.00;90.80;;;;;;5038726;28;20038;-81
2021/05/05 04:25:08;;;;;;;13.18;3.58;;;7.00;90.80;;;;;;5005664;28;20069;-80
2021/05/05 04:27:34;;;;;;;14.95;3.53;;;7.00;90.90;;;;;;5022733;28;20049;-79
2021/05/05 04:30:00;;;;;;;15.60;2.88;;;7.00;90.80;;;;;;5038464;28;20109;-81
2021/05/05 04:32:26;;;;;;;12.10;3.40;;;7.00;90.80;;;;;;5006088;28;20052;-77
2021/05/05 04:34:51;;;;;;;17.58;4.10;;;6.90;90.70;;;;;;5022230;28;20056;-79
2021/05/05 04:37:17;;;;;;;11.23;2.83;;;6.90;91.00;;;;;;5007661;28;20111;-81
2021/05/05 04:39:43;;;;;;;8.75;2.28;;;6.90;90.70;;;;;;5006484;28;20101;-81
2021/05/05 04:42:11;;;;;;;13.93;3.40;;;6.90;90.80;;;;;;5023005;28;20045;-82
2021/05/05 04:44:38;;;;;;;13.88;2.88;;;6.90;90.80;;;;;;5039782;28;20056;-80
2021/05/05 04:47:04;;;;;;;16.20;2.88;;;7.00;90.90;;;;;;5039762;28;20046;-81
2021/05/05 04:49:31;;;;;;;15.10;3.13;;;6.90;90.90;;;;;;5023740;28;20053;-80
2021/05/05 04:51:59;;;;;;;10.52;3.03;;;6.90;90.80;;;;;;5041769;28;20052;-82
2021/05/05 04:54:24;;;;;;;11.52;3.20;;;6.90;90.80;;;;;;5006989;28;20072;-81
2021/05/05 04:56:50;;;;;;;14.07;4.55;;;6.90;90.80;;;;;;5025559;28;20052;-80
2021/05/05 04:59:16;;;;;;;16.65;4.30;;;6.90;90.90;;;;;;5024810;28;20061;-81
2021/05/05 05:01:42;;;;;;;14.68;3.88;;;6.90;90.90;;;;;;5008592;28;20041;-80
2021/05/05 05:04:12;;;;;;;11.18;3.55;;;6.90;90.80;;;;;;5040146;28;20052;-80
2021/05/05 05:06:38;;;;;;;17.15;4.53;;;6.90;90.90;;;;;;5024393;28;20045;-81
2021/05/05 05:09:04;;;;;;;12.20;4.18;;;6.90;90.80;;;;;;5007406;28;20371;-85
2021/05/05 05:11:30;;;;;;;14.85;3.80;;;7.00;90.80;;;;;;5040393;28;20096;-80
2021/05/05 05:13:56;;;;;;;13.80;3.22;;;7.00;90.80;;;;;;5023868;28;20049;-81
2021/05/05 05:16:21;;;;;;;17.02;3.53;;;7.00;90.80;;;;;;5023602;28;20575;-81
2021/05/05 05:18:47;;;;;;;13.95;3.85;;;7.00;90.70;;;;;;5010638;28;20482;-80
2021/05/05 05:21:13;;;;;;;10.88;3.03;;;7.00;90.80;;;;;;5039815;28;20038;-81
2021/05/05 05:23:39;;;;;;;10.73;2.90;;;7.00;90.70;;;;;;5052592;28;20057;-81
2021/05/05 05:26:04;;;;;;;12.18;3.15;;;7.00;90.70;;;;;;5042595;28;20446;-79
2021/05/05 05:28:30;;;;;;;13.98;3.47;;;7.00;90.70;;;;;;5059462;28;20049;-81
2021/05/05 05:30:56;;;;;;;12.32;3.35;;;7.00;90.70;;;;;;5026603;28;20049;-80
2021/05/05 05:33:23;;;;;;;13.77;3.35;;;7.00;90.70;;;;;;5060054;28;20041;-80
2021/05/05 05:35:48;;;;;;;12.23;3.53;;;7.00;90.70;;;;;;5059748;28;20041;-78
2021/05/05 05:38:14;;;;;;;9.75;2.85;;;7.10;90.70;;;;;;5058919;28;20091;-81
2021/05/05 05:40:40;;;;;;;13.65;3.60;;;7.10;90.70;;;;;;5026479;28;20048;-82
2021/05/05 05:43:06;;;;;;;16.50;3.90;;;7.10;90.60;;;;;;5042656;28;20095;-82
2021/05/05 05:45:32;;;;;;;11.25;3.38;;;7.10;90.70;;;;;;5042701;28;20063;-80
2021/05/05 05:47:58;;;;;;;14.88;3.35;;;7.20;90.60;;;;;;5059115;28;20060;-80
2021/05/05 05:50:24;;;;;;;10.43;3.33;;;7.10;90.60;;;;;;5056021;28;20087;-79
2021/05/05 05:52:49;;;;;;;11.50;3.42;;;7.10;90.50;;;;;;5059248;28;20037;-79
2021/05/05 05:55:16;;;;;;;10.95;3.40;;;7.10;90.50;;;;;;5039942;28;20037;-80
2021/05/05 05:57:43;;;;;;;13.07;3.20;;;7.20;90.50;;;;;;5006240;28;20076;-78
2021/05/05 06:00:11;;;;;;;17.67;3.42;;;7.10;90.60;;;;;;5057419;28;20033;-82
2021/05/05 06:02:37;;;;;;;19.55;4.82;;;7.20;90.60;;;;;;5024346;28;20052;-76
2021/05/05 06:05:04;;;;;;;16.80;3.42;;;7.20;90.60;;;;;;5036734;28;20069;-79
2021/05/05 06:07:30;;;;;;;17.15;4.13;;;7.20;90.60;;;;;;5059073;28;20641;-80
2021/05/05 06:09:56;;;;;;;16.70;4.20;;;7.20;90.50;;;;;;5036449;28;20059;-78
2021/05/05 06:12:21;;;;;;;13.80;3.33;;;7.30;90.50;;;;;;5032984;28;20046;-78
2021/05/05 06:14:47;;;;;;;11.43;2.97;;;7.30;90.50;;;;;;5036969;28;20049;-77
2021/05/05 06:17:13;;;;;;;15.63;3.60;;;7.30;90.40;;;;;;5033696;28;20497;-81
2021/05/05 06:19:39;;;;;;;11.77;2.67;;;7.30;90.40;;;;;;5051014;28;20063;-77
2021/05/05 06:22:05;;;;;;;14.23;2.75;;;7.30;90.40;;;;;;5018574;28;20048;-89
2021/05/05 06:24:31;;;;;;;13.27;3.20;;;7.70;90.60;;;;;;5016240;28;20072;-83
2021/05/05 06:26:58;;;;;;;10.20;3.08;;;7.70;90.10;;;;;;5019171;28;20050;-87
2021/05/05 06:29:23;;;;;;;11.98;3.92;;;7.80;90.00;;;;;;5022487;28;20042;-83
2021/05/05 06:31:49;;;;;;;11.88;3.05;;;7.70;89.70;;;;;;5015905;28;20051;-85
2021/05/05 06:34:15;;;;;;;11.27;3.15;;;7.70;89.60;;;;;;5023882;28;20068;-77
2021/05/05 06:36:41;;;;;;;10.07;3.83;;;7.70;89.50;;;;;;5040179;28;20037;-78
2021/05/05 06:39:08;;;;;;;12.40;3.33;;;7.70;89.70;;;;;;5042342;28;20039;-80
2021/05/05 06:41:40;;;;;;;10.57;2.80;;;7.70;89.90;;;;;;5038496;28;20037;-83
2021/05/05 06:44:06;;;;;;;12.45;3.65;;;7.70;90.00;;;;;;5028581;28;20117;-83
2021/05/05 06:46:35;;;;;;;14.30;3.88;;;7.70;89.70;;;;;;5024332;28;20046;-86
2021/05/05 06:49:01;;;;;;;11.05;2.88;;;7.80;90.00;;;;;;5011533;28;20029;-80
2021/05/05 06:51:27;;;;;;;11.82;2.85;;;7.80;89.80;;;;;;5031986;28;20968;-83
2021/05/05 06:53:53;;;;;;;17.05;3.75;;;7.80;89.60;;;;;;5031843;28;20052;-82
2021/05/05 06:56:21;;;;;;;11.90;3.17;;;7.90;89.70;;;;;;5016800;28;20038;-81
2021/05/05 06:58:47;;;;;;;10.38;2.83;;;7.90;89.60;;;;;;5017211;28;20047;-80
2021/05/05 07:01:14;;;;;;;10.85;3.13;;;7.90;89.30;;;;;;5041962;28;20514;-82
2021/05/05 07:03:40;;;;;;;15.15;3.63;;;7.90;89.30;;;;;;5019308;28;20083;-84
2021/05/05 07:06:07;;;;;;;16.80;3.47;;;8.00;89.30;;;;;;5038365;28;20112;-84
2021/05/05 07:08:35;;;;;;;12.75;2.85;;;8.00;89.30;;;;;;5050540;28;20121;-84
2021/05/05 07:11:01;;;;;;;10.98;2.60;;;8.00;89.30;;;;;;5016325;28;20083;-85
2021/05/05 07:13:27;;;;;;;6.93;2.40;;;8.00;89.50;;;;;;5037097;28;20049;-85
2021/05/05 07:15:53;;;;;;;9.10;2.13;;;7.90;89.40;;;;;;5034662;28;20042;-82
2021/05/05 07:18:18;;;;;;;7.25;1.90;;;7.90;89.50;;;;;;5033210;28;20394;-82
2021/05/05 07:20:45;;;;;;;8.63;2.00;;;7.90;89.80;;;;;;5035890;28;20437;-81
2021/05/05 07:23:11;;;;;;;8.50;2.08;;;7.80;89.70;;;;;;5032591;28;20038;-78
2021/05/05 07:25:37;;;;;;;7.70;1.85;;;7.80;89.70;;;;;;5025135;28;20049;-81
2021/05/05 07:28:04;;;;;;;8.70;2.40;;;7.90;89.90;;;;;;5057385;28;20076;-81
2021/05/05 07:30:30;;;;;;;10.45;2.20;;;7.90;89.80;;;;;;5025681;28;20041;-81
2021/05/05 07:32:56;;;;;;;10.27;2.30;;;7.90;89.80;;;;;;5042876;28;20056;-79
2021/05/05 07:35:23;;;;;;;9.23;2.25;;;7.90;90.10;;;;;;5009751;28;20120;-82
2021/05/05 07:46:04;;;;;;;14.85;2.92;;;8.00;90.30;;;;;;5044588;28;20052;-82
2021/05/05 07:50:56;;;;;;;12.32;3.42;;;8.10;90.30;;;;;;5042543;28;20055;-82
2021/05/05 07:53:21;;;;;;;15.82;3.78;;;8.10;90.40;;;;;;5038744;28;20111;-79
2021/05/05 07:55:47;;;;;;;12.95;3.28;;;8.20;90.40;;;;;;5038308;28;20052;-81
2021/05/05 07:58:13;;;;;;;11.52;3.47;;;8.20;90.30;;;;;;5040091;28;20057;-78
2021/05/05 08:00:39;;;;;;;9.05;2.90;;;8.20;90.20;;;;;;5036659;28;20469;-80
2021/05/05 08:03:08;;;;;;;10.88;2.67;;;8.20;90.00;;;;;;5033461;28;20049;-80
2021/05/05 08:05:35;;;;;;;12.15;2.95;;;8.30;90.20;;;;;;5017626;28;20065;-80
2021/05/05 08:08:02;;;;;;;10.05;2.92;;;8.30;90.10;;;;;;5053763;28;20045;-80
2021/05/05 08:10:28;;;;;;;9.60;3.28;;;8.30;90.00;;;;;;5036173;28;20061;-80
2021/05/05 08:12:54;;;;;;;11.50;3.20;;;8.40;90.40;;;;;;5054367;28;20061;-82
2021/05/05 08:15:21;;;;;;;11.15;2.30;;;8.40;90.00;;;;;;5041840;28;20049;-80
2021/05/05 08:17:47;;;;;;;7.15;2.60;;;8.40;90.00;;;;;;5040177;28;20049;-81
2021/05/05 08:20:12;;;;;;;10.52;2.60;;;8.40;90.00;;;;;;5024148;28;20055;-82
2021/05/05 08:22:38;;;;;;;8.10;2.78;;;8.30;90.10;;;;;;5056834;28;20500;-81
2021/05/05 08:25:05;;;;;;;11.60;2.60;;;8.30;90.20;;;;;;5057345;28;20049;-83
2021/05/05 08:27:33;;;;;;;10.40;2.90;;;8.30;90.30;;;;;;5040721;28;20044;-85
2021/05/05 08:30:02;;;;;;;9.77;3.10;;;8.30;90.40;;;;;;5023157;28;20112;-82
2021/05/05 08:32:28;;;;;;;7.35;2.55;;;8.30;90.30;;;;;;5019376;28;20053;-82
2021/05/05 08:34:54;;;;;;;9.60;2.60;;;8.30;90.30;;;;;;5053607;28;20112;-81
2021/05/05 08:37:20;;;;;;;12.95;2.80;;;8.40;90.40;;;;;;5021883;28;20042;-81
2021/05/05 08:39:46;;;;;;;13.25;2.97;;;8.40;90.50;;;;;;5050986;28;20060;-81
2021/05/05 08:42:12;;;;;;;7.85;3.20;;;8.50;90.50;;;;;;5016276;28;20076;-81
2021/05/05 08:44:38;;;;;;;13.50;3.80;;;8.60;90.50;;;;;;5016620;28;20041;-81
2021/05/05 08:47:06;;;;;;;9.98;3.03;;;8.50;90.50;;;;;;5032910;28;20456;-79
2021/05/05 08:49:34;;;;;;;11.85;2.58;;;8.50;90.50;;;;;;5011903;28;20037;-81
2021/05/05 08:52:07;;;;;;;9.38;3.33;;;8.50;90.50;;;;;;5034952;28;20033;-79
2021/05/05 08:54:33;;;;;;;7.22;2.65;;;8.50;90.60;;;;;;5020690;28;20558;-81
2021/05/05 08:57:03;;;;;;;10.05;2.75;;;8.50;90.60;;;;;;5019402;28;20068;-83
2021/05/05 08:59:29;;;;;;;7.60;1.83;;;8.40;90.60;;;;;;4995679;28;20358;-83
2021/05/05 09:01:58;;;;;;;6.32;2.20;;;8.50;90.60;;;;;;5010379;28;20166;-82
2021/05/05 09:04:26;;;;;;;6.47;2.28;;;8.50;90.50;;;;;;5041922;28;20076;-80
2021/05/05 09:06:59;;;;;;;7.63;2.20;;;8.50;90.50;;;;;;5050470;28;20038;-81
2021/05/05 09:09:47;;;;;;;11.00;2.40;;;8.50;90.40;;;;;;5030210;28;20688;-81
2021/05/05 09:12:23;;;;;;;7.63;1.92;;;8.50;90.40;;;;;;5022524;28;20049;-84
2021/05/05 09:14:55;;;;;;;7.65;1.90;;;8.50;90.30;;;;;;5020802;28;20068;-81
2021/05/05 09:17:23;;;;;;;9.45;2.42;;;8.50;90.40;;;;;;5069059;28;20042;-82
2021/05/05 09:19:48;;;;;;;6.03;2.20;;;8.50;90.40;;;;;;5013686;28;20049;-82
2021/05/05 09:22:33;;;;;;;7.25;2.28;;;8.50;90.50;;;;;;5031056;28;20044;-82
2021/05/05 09:24:59;;;;;;;10.35;2.05;;;8.60;90.30;;;;;;5021748;28;20056;-82
2021/05/05 09:27:25;;;;;;;10.40;2.88;;;8.60;90.60;;;;;;5024334;28;20042;-80
2021/05/05 09:29:51;;;;;;;11.57;2.97;;;8.70;90.60;;;;;;5043170;28;20037;-80
2021/05/05 09:32:18;;;;;;;7.82;2.53;;;8.90;90.70;;;;;;5024387;28;20486;-81
2021/05/05 09:35:01;;;;;;;10.82;2.35;;;8.90;90.60;;;;;;5020857;28;20095;-82
2021/05/05 09:37:27;;;;;;;7.53;2.13;;;8.90;90.20;;;;;;5024873;28;20064;-82
2021/05/05 09:40:10;;;;;;;10.07;3.13;;;9.00;90.40;;;;;;5024809;28;20037;-83
2021/05/05 09:42:36;;;;;;;10.15;3.40;;;9.10;90.10;;;;;;5008753;28;20045;-82
2021/05/05 09:45:09;;;;;;;7.47;2.50;;;9.10;90.30;;;;;;5021518;28;20493;-81
2021/05/05 09:47:55;;;;;;;9.30;2.60;;;9.10;90.20;;;;;;5041981;28;20036;-85
2021/05/05 09:50:29;;;;;;;7.63;2.47;;;9.10;89.70;;;;;;5053708;28;20120;-83
2021/05/05 09:53:18;;;;;;;11.18;3.00;;;9.10;90.10;;;;;;5013310;28;20037;-84
2021/05/05 09:55:45;;;;;;;10.30;3.17;;;9.10;89.20;;;;;;5004643;28;20042;-78
2021/05/05 09:58:24;;;;;;;13.63;2.95;;;9.20;90.10;;;;;;5049833;28;20086;-84
2021/05/05 10:01:06;;;;;;;12.63;2.63;;;9.20;89.60;;;;;;5054099;28;20033;-82
2021/05/05 10:03:41;;;;;;;8.90;2.58;;;9.30;89.10;;;;;;5051019;28;20061;-81
2021/05/05 10:06:26;;;;;;;8.93;2.50;;;9.40;89.80;;;;;;5044331;28;20052;-82
2021/05/05 10:09:03;;;;;;;8.27;1.85;;;9.50;89.00;;;;;;5054604;28;20041;-86
2021/05/05 10:11:43;;;;;;;9.80;3.05;;;9.50;89.20;;;;;;5040723;28;20045;-81
2021/05/05 10:14:19;;;;;;;8.73;2.30;;;9.60;89.10;;;;;;5040465;28;20049;-79
2021/05/05 10:16:53;;;;;;;6.15;2.22;;;9.50;88.60;;;;;;5036638;28;20060;-82
2021/05/05 10:19:26;;;;;;;7.78;1.48;;;9.50;89.00;;;;;;5017109;28;20099;-83
2021/05/05 10:21:55;;;;;;;8.15;1.67;;;9.50;89.00;;;;;;5010053;28;20092;-85
2021/05/05 10:24:26;;;;;;;6.20;1.50;;;9.50;89.00;;;;;;5024106;28;20140;-83
2021/05/05 10:26:56;;;;;;;7.60;1.75;;;9.60;90.00;;;;;;5040406;28;20065;-86
2021/05/05 10:29:27;;;;;;;7.03;1.95;;;9.70;89.50;;;;;;5024698;28;20049;-86
2021/05/05 10:32:03;;;;;;;6.90;1.70;;;9.90;89.60;;;;;;5028131;28;20041;-81
2021/05/05 10:34:31;;;;;;;9.10;2.30;;;9.90;89.20;;;;;;5028892;28;20527;-82
2021/05/05 10:37:00;;;;;;;9.68;2.63;;;10.00;88.80;;;;;;5051038;28;20113;-84
2021/05/05 10:39:52;;;;;;;8.55;2.25;;;9.90;88.50;;;;;;5014920;28;20107;-85
2021/05/05 10:42:19;;;;;;;7.45;2.22;;;9.90;86.40;;;;;;5042954;28;20108;-86
2021/05/05 10:44:47;;;;;;;9.18;2.60;;;9.80;88.20;;;;;;5026662;28;20093;-86
2021/05/05 10:47:34;;;;;;;9.70;2.95;;;9.70;88.20;;;;;;5041971;28;20136;-86
2021/05/05 10:50:07;;;;;;;9.32;3.08;;;9.80;88.10;;;;;;5040125;28;20049;-88
2021/05/05 10:52:41;;;;;;;8.60;2.60;;;9.90;88.40;;;;;;5010898;28;20052;-84
2021/05/05 10:55:17;;;;;;;13.02;3.05;;;10.10;88.60;;;;;;5067717;28;20096;-84
2021/05/05 10:58:06;;;;;;;6.97;2.00;;;10.30;88.70;;;;;;5055704;28;20451;-85
2021/05/05 11:00:46;;;;;;;6.68;1.92;;;10.20;87.30;;;;;;5053384;28;20048;-83
2021/05/05 11:03:12;;;;;;;8.38;2.30;;;10.20;86.70;;;;;;5039253;28;20141;-85
2021/05/05 11:05:39;;;;;;;11.95;2.90;;;10.20;87.30;;;;;;5023433;28;20474;-81
2021/05/05 11:08:09;;;;;;;7.38;2.30;;;10.20;87.40;;;;;;5022552;28;20045;-84
2021/05/05 11:10:42;;;;;;;7.90;2.40;;;10.20;87.50;;;;;;5006537;28;20041;-83
2021/05/05 11:13:18;;;;;;;8.27;3.10;;;10.10;87.50;;;;;;5056676;28;20060;-80
2021/05/05 11:15:44;;;;;;;10.25;3.00;;;10.10;87.20;;;;;;5042310;28;20071;-83
2021/05/05 11:18:25;;;;;;;11.25;4.05;;;10.00;87.30;;;;;;5038966;28;20050;-84
2021/05/05 11:20:52;;;;;;;13.93;2.97;;;10.10;86.90;;;;;;5051692;28;20452;-82
2021/05/05 11:23:47;;;;;;;12.32;3.60;;;10.20;87.90;;;;;;5025746;28;20053;-82
2021/05/05 11:26:19;;;;;;;10.80;3.53;;;10.50;87.50;;;;;;5042414;28;20047;-85
2021/05/05 11:29:12;;;;;;;12.30;4.38;;;10.80;87.90;;;;;;5059497;28;20402;-83
2021/05/05 11:31:47;;;;;;;10.43;3.35;;;10.90;85.50;;;;;;5038417;28;20060;-81
2021/05/05 11:34:25;;;;;;;14.93;3.63;;;11.00;86.00;;;;;;5058461;28;20049;-78
2021/05/05 11:36:57;;;;;;;14.50;3.92;;;11.10;85.70;;;;;;5060120;28;20044;-80
2021/05/05 11:39:27;;;;;;;10.68;3.08;;;11.30;85.50;;;;;;5058935;28;20503;-83
2021/05/05 11:41:58;;;;;;;12.32;4.95;;;11.60;85.70;;;;;;5037128;28;20053;-79
2021/05/05 11:45:01;;;;;;;10.30;3.22;;;11.70;84.30;;;;;;5041348;28;20045;-81
2021/05/05 11:47:33;;;;;;;11.77;3.30;;;11.80;82.10;;;;;;5043321;28;20079;-81
2021/05/05 11:50:19;;;;;;;;;;;;;;;;;;;;;
2021/05/05 11:52:50;;;;;;;12.27;3.35;;;11.90;82.90;;;;;;5063022;28;20052;-86
2021/05/05 11:55:34;;;;;;;14.38;3.60;;;11.80;82.70;;;;;;5062708;28;20036;-82
2021/05/05 11:58:00;;;;;;;9.80;3.03;;;11.60;82.60;;;;;;5037412;28;20029;-82
2021/05/05 12:00:31;;;;;;;11.75;3.20;;;11.40;82.50;;;;;;5029569;28;20044;-84
2021/05/05 12:02:58;;;;;;;11.57;3.17;;;11.30;82.40;;;;;;5027137;28;20123;-82
2021/05/05 12:05:38;;;;;;;7.90;2.78;;;11.40;83.10;;;;;;5037184;28;20057;-84
2021/05/05 12:08:12;;;;;;;15.45;3.88;;;11.50;81.20;;;;;;5032016;28;20113;-80
2021/05/05 12:10:39;;;;;;;13.15;3.70;;;11.40;82.40;;;;;;5058069;28;20057;-85
2021/05/05 12:13:17;;;;;;;13.40;3.53;;;11.60;82.20;;;;;;5040680;28;20462;-81
2021/05/05 12:15:57;;;;;;;14.13;4.22;;;11.80;82.60;;;;;;5045917;28;20042;-85
2021/05/05 12:18:33;;;;;;;13.65;3.55;;;12.20;82.30;;;;;;5011467;28;20061;-80
2021/05/05 12:21:07;;;;;;;14.02;3.92;;;12.50;81.60;;;;;;5011842;28;20064;-79
2021/05/05 12:23:44;;;;;;;14.73;4.50;;;12.90;80.80;;;;;;5025395;28;20524;-80
2021/05/05 12:26:15;;;;;;;16.40;4.07;;;13.10;79.00;;;;;;5025565;28;20044;-83
2021/05/05 12:28:42;;;;;;;10.73;3.83;;;13.30;79.60;;;;;;5025635;28;20114;-81
2021/05/05 12:31:09;;;;;;;16.10;4.32;;;13.50;79.10;;;;;;5025005;28;20053;-80
2021/05/05 12:33:39;;;;;;;12.85;3.85;;;13.80;78.30;;;;;;5026242;28;20105;-81
2021/05/05 12:36:20;;;;;;;16.58;4.90;;;14.00;77.50;;;;;;5025548;28;20049;-79
2021/05/05 12:39:00;;;;;;;10.88;3.72;;;14.20;74.80;;;;;;4996336;28;20053;-81
2021/05/05 12:41:27;;;;;;;12.05;4.68;;;14.30;73.30;;;;;;5008707;28;20051;-83
2021/05/05 12:43:54;;;;;;;12.02;4.13;;;14.30;75.50;;;;;;5025019;28;20128;-82
2021/05/05 12:46:29;;;;;;;20.45;4.72;;;14.20;75.00;;;;;;5008179;28;20096;-78
2021/05/05 12:48:56;;;;;;;11.75;3.20;;;14.20;75.00;;;;;;5019780;28;20486;-80
2021/05/05 12:51:26;;;;;;;11.25;2.75;;;14.40;74.30;;;;;;4999861;28;20402;-79
2021/05/05 12:53:57;;;;;;;10.48;2.90;;;14.60;73.60;;;;;;4999637;28;20153;-77
2021/05/05 12:56:43;;;;;;;10.52;3.33;;;14.80;72.00;;;;;;5016101;28;20411;-80
2021/05/05 12:59:09;;;;;;;11.70;3.17;;;15.00;66.20;;;;;;5047505;28;20054;-83
2021/05/05 13:01:41;;;;;;;11.35;3.17;;;14.90;71.00;;;;;;5025461;28;20048;-80
2021/05/05 13:04:07;;;;;;;9.77;2.65;;;14.80;70.80;;;;;;5043625;28;20414;-81
2021/05/05 13:06:37;;;;;;;9.15;2.72;;;14.70;70.70;;;;;;5043686;28;20045;-83
2021/05/05 13:09:14;;;;;;;10.75;4.00;;;14.90;69.30;;;;;;5038696;28;20042;-83